Manbij, Syria
Current Conditions -  °F | °C
As of 2:20 PM on Friday 31 Oct 2014 (Local Time) from LTAJ Reporting Station
Broken Clouds Broken Clouds  
Wind Chill: 63°   Ceiling: 3500
Heat Index: 63°   Visibility: 6mi
Dew Point: 48°   Wind: 5mph
Humidity: 59%   Direction: 50°NE
Pressure: 29.85"   Gusts: NA
Location:  36.54°N, 37.96°E
Report Text: LTAJ 311120Z 05004KT 350V080 9999 FEW020CB BKN035 17/09 Q1011 TEMPO FM1200 -TSRA
Loading
Personal Weather Stations






























Interactive Weather Map
Tropical Storm Tracking
New forecast layout! Learn more

10-Day Weather Forecast

Advertisements
Track Severe Weather on mobile